Athens, Arkansas
Current Conditions -  °F | °C
As of 4:55 PM on Monday 24 Nov 2014 (Local Time) from KMEZ Reporting Station
Clear Clear  
Wind Chill: 54°   Ceiling: Unl
Heat Index: 54°   Visibility: 10mi
Dew Point: 23°   Wind: 6mph
Humidity: 30%   Direction: 260°W
Pressure: 29.98"   Gusts: NA
Location:  34.2871°N, 94.1174°W
Report Text: KMEZ 242255Z AUTO 26005KT 10SM CLR 12/M05 A2998 RMK AO2
Loading
Personal Weather Stations






























Interactive Weather Map New forecast layout! Learn more

10-Day Weather Forecast

Advertisements
Track Severe Weather on mobile